createdAt,value
2023-10-04T00:01:51.583Z,101233.63
2023-10-04T00:04:21.340Z,101238.03
2023-10-04T00:06:49.358Z,101235.31
2023-10-04T00:09:17.443Z,101238.50
2023-10-04T00:11:45.718Z,101240.66
2023-10-04T00:14:13.707Z,101234.88
2023-10-04T00:16:42.461Z,101229.84
2023-10-04T00:19:10.773Z,101235.09
2023-10-04T00:21:40.082Z,101235.97
2023-10-04T00:24:11.215Z,101234.75
2023-10-04T00:26:39.584Z,101239.84
2023-10-04T00:29:07.799Z,101240.09
2023-10-04T00:31:37.685Z,101242.12
2023-10-04T00:34:09.723Z,101247.69
2023-10-04T00:36:38.515Z,101248.53
2023-10-04T00:39:09.146Z,101241.66
2023-10-04T00:41:37.533Z,101242.72
2023-10-04T00:44:10.914Z,101230.22
2023-10-04T00:46:42.802Z,101231.09
2023-10-04T00:49:11.104Z,101229.69
2023-10-04T00:51:41.147Z,101233.41
2023-10-04T00:54:12.963Z,101229.59
2023-10-04T00:56:42.509Z,101229.97
2023-10-04T00:59:12.389Z,101230.28
2023-10-04T01:01:42.329Z,101224.75
2023-10-04T01:04:11.854Z,101221.16
2023-10-04T01:06:40.300Z,101221.69
2023-10-04T01:09:10.396Z,101227.03
2023-10-04T01:11:47.178Z,101232.38
2023-10-04T01:14:20.431Z,101239.84
2023-10-04T01:16:50.862Z,101247.94
2023-10-04T01:19:18.994Z,101259.78
2023-10-04T01:21:47.030Z,101258.06
2023-10-04T01:24:17.891Z,101262.56
2023-10-04T01:26:46.218Z,101259.78
2023-10-04T01:29:16.772Z,101261.81
2023-10-04T01:31:45.037Z,101276.28
2023-10-04T01:34:14.594Z,101271.16
2023-10-04T01:36:43.262Z,101271.72
2023-10-04T01:39:19.735Z,101279.47
2023-10-04T01:41:50.277Z,101284.31
2023-10-04T01:44:18.569Z,101292.53
2023-10-04T01:46:46.578Z,101287.25
2023-10-04T01:49:14.618Z,101295.19
2023-10-04T01:51:44.467Z,101291.69
2023-10-04T01:54:16.904Z,101282.62
2023-10-04T01:56:45.278Z,101289.66
2023-10-04T01:59:15.595Z,101286.22
2023-10-04T02:01:45.373Z,101281.84
2023-10-04T02:04:15.115Z,101282.03
2023-10-04T02:06:43.180Z,101289.47
2023-10-04T02:09:13.215Z,101278.13
2023-10-04T02:11:42.875Z,101280.13
2023-10-04T02:14:12.298Z,101285.66
2023-10-04T02:16:43.033Z,101279.19
2023-10-04T02:19:13.113Z,101278.13
2023-10-04T02:21:41.400Z,101279.75
2023-10-04T02:24:10.966Z,101271.56
2023-10-04T02:26:39.109Z,101270.50
2023-10-04T02:29:10.569Z,101273.25
2023-10-04T02:31:38.694Z,101268.88
2023-10-04T02:34:08.166Z,101276.47
2023-10-04T02:36:38.650Z,101279.44
2023-10-04T02:39:12.409Z,101270.81
2023-10-04T02:41:42.942Z,101275.44
2023-10-04T02:44:11.086Z,101275.81
2023-10-04T02:46:43.032Z,101278.22
2023-10-04T02:49:12.854Z,101275.97
2023-10-04T02:51:42.475Z,101286.84
2023-10-04T02:54:10.647Z,101281.72
2023-10-04T02:56:46.756Z,101281.31
2023-10-04T02:59:18.061Z,101292.69
2023-10-04T03:01:47.910Z,101288.47
2023-10-04T03:04:19.731Z,101285.72
2023-10-04T03:06:48.601Z,101284.47
2023-10-04T03:09:18.055Z,101299.62
2023-10-04T03:11:46.637Z,101300.59
2023-10-04T03:14:16.841Z,101292.00
2023-10-04T03:16:45.113Z,101293.53
2023-10-04T03:19:14.137Z,101296.56
2023-10-04T03:21:47.328Z,101299.94
2023-10-04T03:24:19.720Z,101305.13
2023-10-04T03:26:48.539Z,101304.78
2023-10-04T03:29:19.201Z,101304.87
2023-10-04T03:31:49.704Z,101307.53
2023-10-04T03:34:18.565Z,101307.81
2023-10-04T03:36:47.989Z,101319.16
2023-10-04T03:39:17.491Z,101320.28
2023-10-04T03:41:48.767Z,101322.78
2023-10-04T03:44:17.846Z,101317.34
2023-10-04T03:46:46.127Z,101325.63
2023-10-04T03:49:15.624Z,101334.47
2023-10-04T03:51:44.464Z,101331.06
2023-10-04T03:54:14.256Z,101334.78
2023-10-04T03:56:43.167Z,101336.84
2023-10-04T03:59:12.327Z,101346.19
2023-10-04T04:01:40.675Z,101342.69
2023-10-04T04:04:09.551Z,101339.06
2023-10-04T04:06:37.951Z,101334.41
2023-10-04T04:09:09.917Z,101340.59
2023-10-04T04:11:40.794Z,101332.66
2023-10-04T04:14:09.687Z,101328.87
2023-10-04T04:16:38.725Z,101332.34
2023-10-04T04:19:08.300Z,101331.44
2023-10-04T04:21:37.158Z,101330.00
2023-10-04T04:24:07.769Z,101323.44
2023-10-04T04:26:36.745Z,101321.72
2023-10-04T04:29:10.778Z,101318.66
2023-10-04T04:31:41.754Z,101327.34
2023-10-04T04:34:14.306Z,101330.50
2023-10-04T04:36:43.578Z,101330.59
2023-10-04T04:39:17.834Z,101321.28
2023-10-04T04:41:47.150Z,101325.91
2023-10-04T04:44:21.915Z,101325.75
2023-10-04T04:46:50.650Z,101334.03
2023-10-04T04:49:20.424Z,101325.81
2023-10-04T04:51:48.876Z,101318.41
2023-10-04T04:54:19.555Z,101323.66
2023-10-04T04:56:48.029Z,101322.78
2023-10-04T04:59:22.203Z,101326.16
2023-10-04T05:01:52.413Z,101325.22
2023-10-04T05:04:23.898Z,101328.44
2023-10-04T05:06:52.532Z,101332.06
2023-10-04T05:09:20.560Z,101331.47
2023-10-04T05:11:48.536Z,101333.88
2023-10-04T05:14:18.109Z,101326.75
2023-10-04T05:16:46.224Z,101342.66
2023-10-04T05:19:14.757Z,101340.56
2023-10-04T05:21:43.118Z,101340.94
2023-10-04T05:24:11.581Z,101345.13
2023-10-04T05:26:39.758Z,101332.72
2023-10-04T05:29:08.932Z,101342.37
2023-10-04T05:31:38.911Z,101333.31
2023-10-04T05:34:09.000Z,101337.50
2023-10-04T05:36:40.927Z,101339.97
2023-10-04T05:39:12.672Z,101347.06
2023-10-04T05:41:41.407Z,101345.69
2023-10-04T05:44:10.086Z,101350.28
2023-10-04T05:46:45.482Z,101345.69
2023-10-04T05:49:14.020Z,101343.97
2023-10-04T05:51:42.198Z,101353.03
2023-10-04T05:54:11.822Z,101351.78
2023-10-04T05:56:41.078Z,101348.19
2023-10-04T05:59:11.938Z,101352.75
2023-10-04T06:01:43.020Z,101353.50
2023-10-04T06:04:12.353Z,101359.44
2023-10-04T06:06:45.769Z,101357.91
2023-10-04T06:09:27.723Z,101358.94
2023-10-04T06:11:56.095Z,101367.03
2023-10-04T06:14:26.933Z,101370.88
2023-10-04T06:16:57.289Z,101373.72
2023-10-04T06:19:30.742Z,101378.38
2023-10-04T06:22:00.379Z,101370.38
2023-10-04T06:24:28.964Z,101381.91
2023-10-04T06:26:57.323Z,101381.81
2023-10-04T06:29:25.354Z,101382.37
2023-10-04T06:31:53.984Z,101390.41
2023-10-04T06:34:23.367Z,101397.81
2023-10-04T06:36:51.399Z,101401.53
2023-10-04T06:39:19.777Z,101413.37
2023-10-04T06:41:47.938Z,101414.97
2023-10-04T06:44:15.904Z,101414.66
2023-10-04T06:46:44.244Z,101429.34
2023-10-04T06:49:12.255Z,101430.69
2023-10-04T06:51:41.717Z,101423.25
2023-10-04T06:54:10.549Z,101423.16
2023-10-04T06:56:38.689Z,101422.00
2023-10-04T06:59:06.896Z,101427.03
2023-10-04T07:01:35.202Z,101432.88
2023-10-04T07:04:03.443Z,101431.88
2023-10-04T07:06:34.001Z,101438.62
2023-10-04T07:09:08.809Z,101439.09
2023-10-04T07:11:36.854Z,101440.59
2023-10-04T07:14:05.645Z,101438.94
2023-10-04T07:16:34.298Z,101446.16
2023-10-04T07:19:04.549Z,101445.94
2023-10-04T07:21:33.060Z,101450.44
2023-10-04T07:24:01.098Z,101452.22
2023-10-04T07:26:35.302Z,101448.88
2023-10-04T07:29:04.542Z,101456.50
2023-10-04T07:31:36.271Z,101456.28
2023-10-04T07:34:05.187Z,101465.25
2023-10-04T07:36:33.512Z,101462.28
2023-10-04T07:39:01.527Z,101463.34
2023-10-04T07:41:31.198Z,101468.19
2023-10-04T07:43:59.186Z,101457.25
2023-10-04T07:46:27.433Z,101469.28
2023-10-04T07:48:55.695Z,101469.69
2023-10-04T07:51:23.720Z,101476.22
2023-10-04T07:53:54.067Z,101482.25
2023-10-04T07:56:22.405Z,101476.34
2023-10-04T07:58:51.761Z,101483.31
2023-10-04T08:01:19.780Z,101476.69
2023-10-04T08:03:48.833Z,101477.66
2023-10-04T08:06:17.052Z,101478.16
2023-10-04T08:08:46.437Z,101481.59
2023-10-04T08:11:15.220Z,101484.72
2023-10-04T08:13:43.242Z,101485.56
2023-10-04T08:16:12.611Z,101485.88
2023-10-04T08:18:41.064Z,101496.38
2023-10-04T08:21:09.128Z,101509.03
2023-10-04T08:23:37.142Z,101498.97
2023-10-04T08:26:15.061Z,101503.12
2023-10-04T08:28:43.146Z,101505.91
2023-10-04T08:31:14.662Z,101506.50
2023-10-04T08:33:45.107Z,101497.94
2023-10-04T08:36:18.809Z,101500.69
2023-10-04T08:38:47.178Z,101508.41
2023-10-04T08:41:17.554Z,101503.41
2023-10-04T08:43:46.121Z,101509.38
2023-10-04T08:46:18.721Z,101493.09
2023-10-04T08:48:54.522Z,101490.28
2023-10-04T08:51:32.479Z,101516.13
2023-10-04T08:54:11.243Z,101516.88
2023-10-04T08:56:49.118Z,101521.69
2023-10-04T08:59:19.828Z,101532.56
2023-10-04T09:01:52.340Z,101532.56
2023-10-04T09:04:21.940Z,101530.22
2023-10-04T09:06:50.364Z,101545.87
2023-10-04T09:09:19.587Z,101527.06
2023-10-04T09:11:47.933Z,101535.91
2023-10-04T09:14:16.317Z,101522.88
2023-10-04T09:16:44.473Z,101526.56
2023-10-04T09:19:18.539Z,101512.06
2023-10-04T09:21:47.674Z,101516.19
2023-10-04T09:24:18.017Z,101523.06
2023-10-04T09:26:53.984Z,101512.78
2023-10-04T09:29:31.456Z,101515.63
2023-10-04T09:32:00.205Z,101518.06
2023-10-04T09:34:30.432Z,101516.94
2023-10-04T09:36:59.701Z,101521.59
2023-10-04T09:39:32.351Z,101512.53
2023-10-04T09:42:04.963Z,101519.38
2023-10-04T09:44:37.259Z,101523.72
2023-10-04T09:47:06.846Z,101522.28
2023-10-04T09:49:38.818Z,101517.22
2023-10-04T09:52:09.132Z,101522.50
2023-10-04T09:54:37.853Z,101521.91
2023-10-04T09:57:08.365Z,101533.19
2023-10-04T09:59:38.218Z,101532.81
2023-10-04T10:02:10.374Z,101534.91
2023-10-04T10:04:44.614Z,101521.44
2023-10-04T10:07:17.360Z,101530.84
2023-10-04T10:10:00.854Z,101521.66
2023-10-04T10:12:32.454Z,101521.25
2023-10-04T10:15:02.236Z,101531.06
2023-10-04T10:17:31.998Z,101530.97
2023-10-04T10:20:02.975Z,101525.50
2023-10-04T10:22:31.075Z,101535.53
2023-10-04T10:25:16.247Z,101523.72
2023-10-04T10:27:45.953Z,101525.00
2023-10-04T10:30:14.667Z,101518.44
2023-10-04T10:32:52.293Z,101514.75
2023-10-04T10:35:58.334Z,101505.47
2023-10-04T10:38:31.993Z,101511.16
2023-10-04T10:41:00.359Z,101504.78
2023-10-04T10:43:28.413Z,101516.72
2023-10-04T10:45:57.489Z,101513.97
2023-10-04T10:48:34.728Z,101519.00
2023-10-04T10:51:03.292Z,101517.91
2023-10-04T10:53:33.121Z,101518.41
2023-10-04T10:56:01.317Z,101523.81
2023-10-04T10:58:29.492Z,101520.88
2023-10-04T11:00:58.396Z,101519.16
2023-10-04T11:03:29.676Z,101516.25
2023-10-04T11:06:01.022Z,101522.13
2023-10-04T11:08:30.427Z,101518.16
2023-10-04T11:11:01.482Z,101514.63
2023-10-04T11:13:34.978Z,101520.66
2023-10-04T11:16:07.315Z,101522.13
2023-10-04T11:18:36.688Z,101506.59
2023-10-04T11:21:05.665Z,101510.38
2023-10-04T11:23:35.315Z,101512.94
2023-10-04T11:26:08.450Z,101502.97
2023-10-04T11:28:37.136Z,101510.50
2023-10-04T11:31:05.872Z,101505.09
2023-10-04T11:33:51.731Z,101508.16
2023-10-04T11:36:21.266Z,101500.63
2023-10-04T11:38:51.021Z,101507.78
2023-10-04T11:41:21.424Z,101496.38
2023-10-04T11:43:52.657Z,101495.75
2023-10-04T11:46:22.413Z,101496.19
2023-10-04T11:48:50.529Z,101494.78
2023-10-04T11:51:29.866Z,101509.53
2023-10-04T11:53:59.909Z,101492.34
2023-10-04T11:56:29.482Z,101498.16
2023-10-04T11:58:58.167Z,101500.81
2023-10-04T12:01:26.761Z,101483.66
2023-10-04T12:03:56.296Z,101497.34
2023-10-04T12:06:25.429Z,101493.47
2023-10-04T12:08:54.424Z,101494.66
2023-10-04T12:11:26.207Z,101492.25
2023-10-04T12:13:56.582Z,101487.81
2023-10-04T12:16:25.987Z,101493.25
2023-10-04T12:18:54.219Z,101493.25
2023-10-04T12:21:22.340Z,101487.53
2023-10-04T12:23:50.746Z,101488.94
2023-10-04T12:26:22.204Z,101482.03
2023-10-04T12:28:50.760Z,101484.56
2023-10-04T12:31:20.856Z,101480.03
2023-10-04T12:33:50.177Z,101487.72
2023-10-04T12:36:18.516Z,101476.47
2023-10-04T12:38:47.612Z,101471.03
2023-10-04T12:41:16.098Z,101467.63
2023-10-04T12:43:45.484Z,101468.31
2023-10-04T12:46:13.637Z,101471.31
2023-10-04T12:48:43.040Z,101463.00
2023-10-04T12:51:11.298Z,101459.06
2023-10-04T12:53:39.370Z,101462.84
2023-10-04T12:56:08.457Z,101457.56
2023-10-04T12:58:36.713Z,101460.06
2023-10-04T13:01:06.787Z,101456.72
2023-10-04T13:03:34.932Z,101459.19
2023-10-04T13:06:07.332Z,101452.09
2023-10-04T13:08:35.800Z,101443.00
2023-10-04T13:11:06.079Z,101450.19
2023-10-04T13:13:34.553Z,101455.59
2023-10-04T13:16:04.321Z,101457.91
2023-10-04T13:18:33.923Z,101451.03
2023-10-04T13:21:02.074Z,101447.91
2023-10-04T13:23:33.191Z,101443.37
2023-10-04T13:26:01.435Z,101442.72
2023-10-04T13:28:30.098Z,101444.28
2023-10-04T13:30:58.179Z,101446.84
2023-10-04T13:33:27.313Z,101441.59
2023-10-04T13:35:59.052Z,101445.56
2023-10-04T13:38:27.421Z,101441.16
2023-10-04T13:40:56.869Z,101442.12
2023-10-04T13:43:25.848Z,101440.59
2023-10-04T13:45:54.648Z,101439.47
2023-10-04T13:48:23.984Z,101440.94
2023-10-04T13:50:53.217Z,101440.31
2023-10-04T13:53:23.987Z,101434.06
2023-10-04T13:55:52.129Z,101430.50
2023-10-04T13:58:24.837Z,101429.81
2023-10-04T14:00:57.435Z,101428.41
2023-10-04T14:03:26.944Z,101426.66
2023-10-04T14:06:01.541Z,101433.66
2023-10-04T14:08:29.991Z,101445.59
2023-10-04T14:10:59.428Z,101436.34
2023-10-04T14:13:29.246Z,101438.34
2023-10-04T14:15:57.752Z,101437.75
2023-10-04T14:18:26.342Z,101440.63
2023-10-04T14:20:58.220Z,101441.91
2023-10-04T14:23:27.125Z,101436.91
2023-10-04T14:25:57.427Z,101439.19
2023-10-04T14:28:26.524Z,101439.94
2023-10-04T14:30:58.489Z,101434.59
2023-10-04T14:33:27.858Z,101429.97
2023-10-04T14:35:56.254Z,101420.88
2023-10-04T14:38:24.340Z,101424.28
2023-10-04T14:40:59.510Z,101423.53
2023-10-04T14:43:32.688Z,101418.31
2023-10-04T14:46:04.989Z,101421.56
2023-10-04T14:48:34.103Z,101422.44
2023-10-04T14:51:12.476Z,101432.78
2023-10-04T14:53:41.851Z,101422.78
2023-10-04T14:56:10.621Z,101418.62
2023-10-04T14:58:38.611Z,101413.53
2023-10-04T15:01:13.899Z,101416.75
2023-10-04T15:03:42.418Z,101416.87
2023-10-04T15:06:15.655Z,101414.91
2023-10-04T15:08:46.003Z,101413.19
2023-10-04T15:11:14.884Z,101414.28
2023-10-04T15:13:43.702Z,101406.53
2023-10-04T15:16:15.840Z,101409.19
2023-10-04T15:18:44.285Z,101412.09
2023-10-04T15:21:12.268Z,101404.78
2023-10-04T15:23:40.978Z,101413.88
2023-10-04T15:26:11.454Z,101412.16
2023-10-04T15:28:45.700Z,101406.87
2023-10-04T15:31:18.754Z,101411.41
2023-10-04T15:33:48.261Z,101410.03
2023-10-04T15:36:17.991Z,101406.97
2023-10-04T15:38:47.086Z,101407.56
2023-10-04T15:41:15.369Z,101410.25
2023-10-04T15:43:43.829Z,101412.87
2023-10-04T15:46:14.923Z,101415.03
2023-10-04T15:48:44.711Z,101414.31
2023-10-04T15:51:13.039Z,101409.69
2023-10-04T15:53:41.134Z,101412.16
2023-10-04T15:56:09.517Z,101416.34
2023-10-04T15:58:37.933Z,101412.44
2023-10-04T16:01:06.107Z,101404.75
2023-10-04T16:03:34.558Z,101403.41
2023-10-04T16:06:04.431Z,101401.00
2023-10-04T16:08:32.634Z,101404.16
2023-10-04T16:11:01.049Z,101403.22
2023-10-04T16:13:29.154Z,101404.06
2023-10-04T16:15:57.615Z,101405.81
2023-10-04T16:18:29.898Z,101408.03
2023-10-04T16:20:58.214Z,101413.91
2023-10-04T16:23:29.627Z,101420.59
2023-10-04T16:25:57.791Z,101409.84
2023-10-04T16:28:26.196Z,101419.97
2023-10-04T16:30:54.582Z,101415.94
2023-10-04T16:33:22.793Z,101420.84
2023-10-04T16:35:50.783Z,101422.28
2023-10-04T16:38:19.045Z,101423.03
2023-10-04T16:40:48.433Z,101417.19
2023-10-04T16:43:17.700Z,101429.63
2023-10-04T16:45:52.216Z,101424.50
2023-10-04T16:48:20.452Z,101428.25
2023-10-04T16:50:48.921Z,101420.06
2023-10-04T16:53:16.963Z,101427.63
2023-10-04T16:55:45.163Z,101420.56
2023-10-04T16:58:14.765Z,101420.16
2023-10-04T17:00:44.325Z,101423.31
2023-10-04T17:03:12.636Z,101423.44
2023-10-04T17:05:41.000Z,101423.37
2023-10-04T17:08:09.053Z,101421.38
2023-10-04T17:10:37.385Z,101423.94
2023-10-04T17:13:05.952Z,101425.78
2023-10-04T17:15:35.432Z,101424.31
2023-10-04T17:18:03.735Z,101419.19
2023-10-04T17:20:32.029Z,101424.88
2023-10-04T17:23:00.286Z,101424.28
2023-10-04T17:25:30.701Z,101417.94
2023-10-04T17:27:59.716Z,101422.69
2023-10-04T17:30:30.397Z,101415.28
2023-10-04T17:33:00.593Z,101414.62
2023-10-04T17:35:29.194Z,101418.69
2023-10-04T17:37:57.320Z,101414.06
2023-10-04T17:40:26.910Z,101411.38
2023-10-04T17:42:55.441Z,101410.53
2023-10-04T17:45:23.642Z,101415.16
2023-10-04T17:47:51.975Z,101410.84
2023-10-04T17:50:21.722Z,101408.28
2023-10-04T17:52:50.372Z,101414.62
2023-10-04T17:55:18.903Z,101410.47
2023-10-04T17:57:47.954Z,101412.41
2023-10-04T18:00:16.913Z,101417.13
2023-10-04T18:02:48.202Z,101410.28
2023-10-04T18:05:16.812Z,101419.44
2023-10-04T18:07:46.770Z,101420.47
2023-10-04T18:10:15.316Z,101414.56
2023-10-04T18:12:44.278Z,101415.97
2023-10-04T18:15:18.127Z,101417.06
2023-10-04T18:17:47.527Z,101423.66
2023-10-04T18:20:16.626Z,101419.44
2023-10-04T18:22:46.972Z,101421.16
2023-10-04T18:25:15.978Z,101426.66
2023-10-04T18:27:45.720Z,101420.53
2023-10-04T18:30:15.348Z,101430.53
2023-10-04T18:32:43.898Z,101428.53
2023-10-04T18:35:12.560Z,101421.69
2023-10-04T18:37:43.449Z,101419.87
2023-10-04T18:40:14.414Z,101417.94
2023-10-04T18:42:45.178Z,101419.81
2023-10-04T18:45:13.849Z,101420.00
2023-10-04T18:47:44.546Z,101415.59
2023-10-04T18:50:19.123Z,101417.31
2023-10-04T18:52:56.925Z,101416.78
2023-10-04T18:55:29.771Z,101408.00
2023-10-04T18:57:58.636Z,101416.59
2023-10-04T19:00:26.994Z,101413.91
2023-10-04T19:02:57.550Z,101415.12
2023-10-04T19:05:27.098Z,101418.97
2023-10-04T19:08:03.409Z,101410.06
2023-10-04T19:10:33.202Z,101413.59
2023-10-04T19:13:01.472Z,101409.09
2023-10-04T19:15:30.720Z,101409.09
2023-10-04T19:18:01.356Z,101405.94
2023-10-04T19:20:30.568Z,101394.13
2023-10-04T19:23:05.556Z,101395.84
2023-10-04T19:25:58.220Z,101395.63
2023-10-04T19:28:29.383Z,101396.59
2023-10-04T19:31:00.140Z,101393.41
2023-10-04T19:33:31.067Z,101392.19
2023-10-04T19:36:00.187Z,101397.78
2023-10-04T19:38:31.444Z,101399.03
2023-10-04T19:41:05.276Z,101397.44
2023-10-04T19:43:38.318Z,101402.69
2023-10-04T19:46:13.553Z,101409.38
2023-10-04T19:48:45.301Z,101404.31
2023-10-04T19:51:13.492Z,101400.78
2023-10-04T19:53:42.844Z,101392.63
2023-10-04T19:56:17.568Z,101394.56
2023-10-04T19:58:49.027Z,101395.66
2023-10-04T20:01:18.874Z,101385.78
2023-10-04T20:03:53.430Z,101384.38
2023-10-04T20:06:38.287Z,101387.84
2023-10-04T20:09:26.788Z,101384.62
2023-10-04T20:11:57.176Z,101392.22
2023-10-04T20:14:29.636Z,101387.62
2023-10-04T20:16:58.980Z,101389.66
2023-10-04T20:19:29.778Z,101388.94
2023-10-04T20:22:00.993Z,101393.72
2023-10-04T20:24:29.733Z,101391.69
2023-10-04T20:27:00.763Z,101388.34
2023-10-04T20:29:28.951Z,101389.53
2023-10-04T20:31:57.705Z,101390.06
2023-10-04T20:34:29.018Z,101386.81
2023-10-04T20:36:58.833Z,101389.94
2023-10-04T20:39:29.297Z,101388.41
2023-10-04T20:42:06.276Z,101382.75
2023-10-04T20:44:36.659Z,101383.91
2023-10-04T20:47:05.474Z,101383.03
2023-10-04T20:49:34.342Z,101380.69
2023-10-04T20:52:02.543Z,101368.38
2023-10-04T20:54:32.757Z,101382.41
2023-10-04T20:57:02.341Z,101379.91
2023-10-04T20:59:30.551Z,101374.03
2023-10-04T21:01:58.687Z,101373.47
2023-10-04T21:04:27.011Z,101367.47
2023-10-04T21:06:55.461Z,101377.31
2023-10-04T21:09:23.749Z,101380.22
2023-10-04T21:11:54.172Z,101378.69
2023-10-04T21:14:24.738Z,101379.75
2023-10-04T21:16:52.885Z,101370.22
2023-10-04T21:19:21.174Z,101364.88
2023-10-04T21:21:49.735Z,101364.88
2023-10-04T21:24:19.415Z,101361.19
2023-10-04T21:26:47.956Z,101346.88
2023-10-04T21:29:16.270Z,101358.00
2023-10-04T21:31:45.651Z,101349.25
2023-10-04T21:34:33.319Z,101348.78
2023-10-04T21:37:24.708Z,101339.91
2023-10-04T21:40:13.110Z,101343.66
2023-10-04T21:42:44.878Z,101343.84
2023-10-04T21:45:14.841Z,101340.22
2023-10-04T21:47:50.268Z,101342.31
2023-10-04T21:50:20.995Z,101329.81
2023-10-04T21:52:49.500Z,101333.56
2023-10-04T21:55:18.394Z,101334.34
2023-10-04T21:57:46.796Z,101326.84
2023-10-04T22:00:23.632Z,101328.78
2023-10-04T22:02:55.749Z,101328.13
2023-10-04T22:05:25.053Z,101327.22
2023-10-04T22:07:56.694Z,101320.41
2023-10-04T22:10:25.696Z,101314.19
2023-10-04T22:12:57.095Z,101317.28
2023-10-04T22:15:25.904Z,101313.75
2023-10-04T22:17:55.695Z,101310.53
2023-10-04T22:20:24.657Z,101294.28
2023-10-04T22:22:52.891Z,101298.78
2023-10-04T22:25:23.222Z,101296.19
2023-10-04T22:27:51.559Z,101294.59
2023-10-04T22:30:20.416Z,101296.50
2023-10-04T22:32:50.976Z,101293.16
2023-10-04T22:35:24.580Z,101295.19
2023-10-04T22:37:54.142Z,101299.13
2023-10-04T22:40:25.564Z,101299.22
2023-10-04T22:42:56.255Z,101300.47
2023-10-04T22:45:24.932Z,101298.75
2023-10-04T22:47:53.237Z,101294.56
2023-10-04T22:50:23.185Z,101293.91
2023-10-04T22:52:53.621Z,101300.97
2023-10-04T22:55:22.583Z,101303.94
2023-10-04T22:57:51.276Z,101292.56
2023-10-04T23:00:25.101Z,101290.87
2023-10-04T23:02:56.648Z,101296.41
2023-10-04T23:05:27.439Z,101286.69
2023-10-04T23:07:57.166Z,101281.63
2023-10-04T23:10:25.462Z,101282.47
2023-10-04T23:12:54.911Z,101267.41
2023-10-04T23:15:29.265Z,101267.63
2023-10-04T23:17:57.963Z,101269.34
2023-10-04T23:20:39.048Z,101261.44
2023-10-04T23:23:12.564Z,101262.94
2023-10-04T23:25:44.379Z,101263.69
2023-10-04T23:28:13.524Z,101260.28
2023-10-04T23:30:43.761Z,101256.56
2023-10-04T23:33:16.235Z,101254.94
2023-10-04T23:35:48.080Z,101250.84
2023-10-04T23:38:39.862Z,101262.09
2023-10-04T23:41:25.690Z,101257.91
2023-10-04T23:43:54.790Z,101260.69
2023-10-04T23:46:31.908Z,101250.19
2023-10-04T23:49:10.091Z,101249.22
2023-10-04T23:51:42.645Z,101242.09
2023-10-04T23:54:13.341Z,101244.75
2023-10-04T23:57:01.683Z,101249.16
2023-10-04T23:59:29.943Z,101252.00
